createdAt,value
2023-01-30T00:01:40.255Z,65.57
2023-01-30T00:04:06.895Z,65.50
2023-01-30T00:06:34.198Z,64.40
2023-01-30T00:09:00.841Z,64.07
2023-01-30T00:11:30.052Z,64.08
2023-01-30T00:13:57.044Z,64.50
2023-01-30T00:16:23.805Z,65.62
2023-01-30T00:18:50.850Z,65.59
2023-01-30T00:21:18.265Z,65.85
2023-01-30T00:23:45.537Z,65.05
2023-01-30T00:26:12.596Z,65.21
2023-01-30T00:28:39.858Z,65.59
2023-01-30T00:31:07.382Z,64.56
2023-01-30T00:33:36.046Z,63.95
2023-01-30T00:36:03.121Z,63.65
2023-01-30T00:38:29.790Z,64.52
2023-01-30T00:40:56.402Z,64.06
2023-01-30T00:43:41.387Z,63.97
2023-01-30T00:46:44.389Z,62.90
2023-01-30T00:49:11.284Z,64.37
2023-01-30T00:51:37.919Z,63.99
2023-01-30T00:54:04.561Z,64.34
2023-01-30T00:56:31.274Z,65.45
2023-01-30T00:58:57.878Z,65.75
2023-01-30T01:01:24.566Z,65.91
2023-01-30T01:03:51.280Z,65.71
2023-01-30T01:06:17.926Z,64.26
2023-01-30T01:08:44.607Z,63.88
2023-01-30T01:11:24.163Z,64.54
2023-01-30T01:13:55.475Z,63.79
2023-01-30T01:16:22.362Z,64.76
2023-01-30T01:18:49.813Z,65.12
2023-01-30T01:21:19.292Z,64.98
2023-01-30T01:23:52.987Z,64.75
2023-01-30T01:26:20.196Z,64.91
2023-01-30T01:28:46.975Z,64.60
2023-01-30T01:31:16.363Z,66.00
2023-01-30T01:33:43.223Z,65.42
2023-01-30T01:36:09.912Z,66.12
2023-01-30T01:38:36.609Z,66.21
2023-01-30T01:41:03.371Z,66.17
2023-01-30T01:43:32.975Z,65.52
2023-01-30T01:46:12.202Z,65.62
2023-01-30T01:48:43.735Z,65.97
2023-01-30T01:51:17.687Z,65.52
2023-01-30T01:53:50.631Z,64.51
2023-01-30T01:56:19.684Z,65.21
2023-01-30T01:58:55.692Z,64.64
2023-01-30T02:01:22.643Z,65.23
2023-01-30T02:03:54.511Z,66.45
2023-01-30T02:06:22.911Z,65.62
2023-01-30T02:08:57.846Z,64.84
2023-01-30T02:11:34.974Z,66.33
2023-01-30T02:14:03.144Z,64.88
2023-01-30T02:16:29.817Z,64.25
2023-01-30T02:18:56.599Z,63.75
2023-01-30T02:21:52.196Z,64.05
2023-01-30T02:24:55.001Z,64.28
2023-01-30T02:27:47.942Z,65.13
2023-01-30T02:30:33.173Z,63.84
2023-01-30T02:33:10.848Z,64.67
2023-01-30T02:35:43.462Z,66.19
2023-01-30T02:38:31.728Z,65.48
2023-01-30T02:41:46.084Z,64.76
2023-01-30T02:44:30.430Z,64.45
2023-01-30T02:47:05.225Z,65.15
2023-01-30T02:49:37.618Z,65.49
2023-01-30T02:52:07.034Z,66.57
2023-01-30T02:54:33.871Z,65.45
2023-01-30T02:57:00.872Z,65.29
2023-01-30T02:59:37.793Z,65.68
2023-01-30T03:02:12.291Z,64.65
2023-01-30T03:04:57.133Z,65.67
2023-01-30T03:07:38.892Z,65.50
2023-01-30T03:10:33.513Z,64.95
2023-01-30T03:13:23.101Z,64.91
2023-01-30T03:16:00.141Z,64.93
2023-01-30T03:18:26.855Z,65.55
2023-01-30T03:20:54.024Z,67.01
2023-01-30T03:23:20.897Z,67.13
2023-01-30T03:25:49.050Z,65.67
2023-01-30T03:28:20.941Z,65.61
2023-01-30T03:30:47.718Z,65.67
2023-01-30T03:33:14.437Z,66.07
2023-01-30T03:35:42.590Z,66.17
2023-01-30T03:38:10.071Z,65.87
2023-01-30T03:40:36.911Z,65.89
2023-01-30T03:43:03.570Z,67.34
2023-01-30T03:45:30.223Z,68.16
2023-01-30T03:47:56.870Z,68.10
2023-01-30T03:50:23.523Z,67.82
2023-01-30T03:52:50.136Z,66.59
2023-01-30T03:55:17.504Z,65.67
2023-01-30T03:57:44.327Z,65.98
2023-01-30T04:00:11.564Z,66.41
2023-01-30T04:02:38.832Z,67.85
2023-01-30T04:05:06.375Z,66.86
2023-01-30T04:07:33.010Z,66.50
2023-01-30T04:09:59.578Z,65.84
2023-01-30T04:12:26.192Z,65.62
2023-01-30T04:14:52.800Z,65.49
2023-01-30T04:17:19.449Z,65.20
2023-01-30T04:19:46.081Z,66.33
2023-01-30T04:22:12.765Z,65.82
2023-01-30T04:24:39.488Z,63.66
2023-01-30T04:27:06.261Z,63.29
2023-01-30T04:29:32.936Z,63.50
2023-01-30T04:31:59.554Z,62.61
2023-01-30T04:34:26.186Z,63.05
2023-01-30T04:36:52.812Z,62.46
2023-01-30T04:39:21.171Z,64.04
2023-01-30T04:41:48.584Z,64.19
2023-01-30T04:44:15.180Z,63.53
2023-01-30T04:46:41.752Z,63.71
2023-01-30T04:49:10.713Z,65.54
2023-01-30T04:51:37.404Z,64.76
2023-01-30T04:54:04.366Z,65.20
2023-01-30T04:56:30.965Z,64.90
2023-01-30T04:58:57.626Z,65.48
2023-01-30T05:01:30.459Z,64.55
2023-01-30T05:03:57.467Z,63.20
2023-01-30T05:06:24.270Z,63.13
2023-01-30T05:08:52.501Z,63.39
2023-01-30T05:11:20.355Z,63.54
2023-01-30T05:13:47.793Z,63.58
2023-01-30T05:16:15.493Z,63.80
2023-01-30T05:18:43.272Z,64.34
2023-01-30T05:21:13.876Z,65.43
2023-01-30T05:23:40.867Z,65.79
2023-01-30T05:26:07.982Z,64.75
2023-01-30T05:28:35.150Z,64.93
2023-01-30T05:31:07.553Z,65.26
2023-01-30T05:33:34.626Z,64.00
2023-01-30T05:36:02.386Z,63.42
2023-01-30T05:38:30.046Z,63.62
2023-01-30T05:41:00.618Z,64.50
2023-01-30T05:43:27.273Z,65.46
2023-01-30T05:45:55.914Z,65.57
2023-01-30T05:48:23.043Z,65.90
2023-01-30T05:50:54.269Z,66.65
2023-01-30T05:53:22.379Z,66.57
2023-01-30T05:55:59.794Z,67.03
2023-01-30T05:58:27.707Z,67.22
2023-01-30T06:00:54.682Z,65.40
2023-01-30T06:03:21.526Z,67.12
2023-01-30T06:05:48.142Z,66.44
2023-01-30T06:08:14.722Z,65.35
2023-01-30T06:10:41.340Z,65.69
2023-01-30T06:13:11.028Z,65.53
2023-01-30T06:15:38.268Z,65.06
2023-01-30T06:18:04.980Z,65.48
2023-01-30T06:20:31.638Z,66.15
2023-01-30T06:22:58.244Z,65.39
2023-01-30T06:25:24.837Z,66.52
2023-01-30T06:27:51.443Z,66.91
2023-01-30T06:30:18.289Z,64.96
2023-01-30T06:32:44.877Z,65.16
2023-01-30T06:35:11.527Z,64.38
2023-01-30T06:37:41.059Z,66.30
2023-01-30T06:40:11.044Z,65.95
2023-01-30T06:42:37.698Z,66.24
2023-01-30T06:45:08.423Z,66.98
2023-01-30T06:47:35.188Z,67.21
2023-01-30T06:50:02.976Z,66.81
2023-01-30T06:52:29.626Z,66.30
2023-01-30T06:54:56.318Z,65.69
2023-01-30T06:57:22.919Z,68.10
2023-01-30T06:59:49.576Z,67.92
2023-01-30T07:02:16.187Z,68.45
2023-01-30T07:04:42.957Z,68.63
2023-01-30T07:07:11.640Z,68.87
2023-01-30T07:09:38.312Z,67.98
2023-01-30T07:12:05.227Z,67.70
2023-01-30T07:14:31.938Z,67.24
2023-01-30T07:16:58.621Z,67.58
2023-01-30T07:19:25.323Z,66.97
2023-01-30T07:21:52.026Z,66.97
2023-01-30T07:24:21.758Z,65.76
2023-01-30T07:26:49.170Z,65.60
2023-01-30T07:29:15.904Z,65.36
2023-01-30T07:31:44.873Z,66.46
2023-01-30T07:34:11.538Z,65.84
2023-01-30T07:36:38.202Z,65.03
2023-01-30T07:39:06.107Z,65.72
2023-01-30T07:41:32.713Z,66.69
2023-01-30T07:43:59.365Z,66.57
2023-01-30T07:46:26.059Z,67.64
2023-01-30T07:48:52.803Z,68.31
2023-01-30T07:51:19.475Z,67.70
2023-01-30T07:53:50.136Z,66.92
2023-01-30T07:56:23.867Z,66.86
2023-01-30T07:58:51.327Z,66.58
2023-01-30T08:01:18.204Z,66.49
2023-01-30T08:03:46.837Z,65.68
2023-01-30T08:06:14.122Z,66.54
2023-01-30T08:08:41.743Z,66.54
2023-01-30T08:11:11.756Z,67.31
2023-01-30T08:13:38.377Z,66.88
2023-01-30T08:16:07.160Z,66.81
2023-01-30T08:18:34.703Z,65.85
2023-01-30T08:21:03.108Z,66.03
2023-01-30T08:23:30.038Z,65.43
2023-01-30T08:25:57.764Z,64.89
2023-01-30T08:28:24.703Z,64.05
2023-01-30T08:30:53.598Z,65.45
2023-01-30T08:33:21.732Z,64.41
2023-01-30T08:35:48.543Z,65.07
2023-01-30T08:38:16.015Z,65.87
2023-01-30T08:40:43.192Z,65.46
2023-01-30T08:43:10.120Z,65.63
2023-01-30T08:45:36.800Z,64.38
2023-01-30T08:48:06.105Z,63.11
2023-01-30T08:50:33.940Z,63.12
2023-01-30T08:53:10.093Z,62.35
2023-01-30T08:55:36.704Z,61.17
2023-01-30T08:58:03.471Z,61.00
2023-01-30T09:00:30.475Z,61.50
2023-01-30T09:02:58.002Z,62.30
2023-01-30T09:05:24.890Z,63.31
2023-01-30T09:07:51.872Z,62.14
2023-01-30T09:10:19.231Z,61.64
2023-01-30T09:12:46.737Z,60.52
2023-01-30T09:15:13.469Z,61.78
2023-01-30T09:17:40.383Z,60.05
2023-01-30T09:20:10.326Z,60.35
2023-01-30T09:22:40.577Z,60.69
2023-01-30T09:25:08.384Z,59.89
2023-01-30T09:27:35.417Z,61.38
2023-01-30T09:30:03.850Z,61.79
2023-01-30T09:32:30.484Z,61.70
2023-01-30T09:34:57.137Z,60.69
2023-01-30T09:37:23.845Z,60.61
2023-01-30T09:39:50.423Z,61.08
2023-01-30T09:42:26.603Z,60.21
2023-01-30T09:45:13.399Z,60.29
2023-01-30T09:47:54.267Z,59.88
2023-01-30T09:50:27.458Z,59.45
2023-01-30T09:53:02.152Z,60.76
2023-01-30T09:55:30.986Z,61.38
2023-01-30T09:58:00.163Z,60.40
2023-01-30T10:00:34.430Z,59.82
2023-01-30T10:03:10.954Z,60.31
2023-01-30T10:05:44.893Z,61.52
2023-01-30T10:08:48.977Z,61.84
2023-01-30T10:11:30.353Z,62.48
2023-01-30T10:14:06.103Z,65.01
2023-01-30T10:16:49.440Z,66.46
2023-01-30T10:19:51.220Z,67.44
2023-01-30T10:22:45.864Z,65.79
2023-01-30T10:25:15.211Z,66.35
2023-01-30T10:27:51.519Z,66.50
2023-01-30T10:30:19.202Z,67.42
2023-01-30T10:33:00.933Z,67.86
2023-01-30T10:35:32.236Z,67.58
2023-01-30T10:38:19.961Z,66.78
2023-01-30T10:40:57.116Z,65.84
2023-01-30T10:43:31.746Z,67.53
2023-01-30T10:46:10.590Z,67.79
2023-01-30T10:48:53.088Z,67.16
2023-01-30T10:51:49.170Z,67.24
2023-01-30T10:54:34.054Z,67.18
2023-01-30T10:57:24.489Z,68.04
2023-01-30T11:00:12.961Z,68.14
2023-01-30T11:03:14.052Z,66.41
2023-01-30T11:06:00.026Z,65.97
2023-01-30T11:08:33.397Z,66.44
2023-01-30T11:11:02.139Z,65.78
2023-01-30T11:13:31.324Z,64.55
2023-01-30T11:16:08.056Z,65.26
2023-01-30T11:21:43.666Z,65.14
2023-01-30T11:24:17.561Z,64.98
2023-01-30T11:26:47.876Z,63.45
2023-01-30T11:29:29.150Z,63.75
2023-01-30T11:31:56.801Z,62.61
2023-01-30T11:34:24.924Z,62.62
2023-01-30T11:36:51.761Z,62.97
2023-01-30T11:39:23.955Z,63.60
2023-01-30T11:41:58.764Z,62.77
2023-01-30T11:44:35.681Z,63.59
2023-01-30T11:47:09.728Z,61.77
2023-01-30T11:50:03.730Z,60.13
2023-01-30T11:52:38.264Z,59.39
2023-01-30T11:55:11.553Z,57.25
2023-01-30T11:57:57.209Z,58.75
2023-01-30T12:00:29.454Z,59.88
2023-01-30T12:03:06.583Z,59.96
2023-01-30T12:05:36.934Z,58.79
2023-01-30T12:08:31.240Z,59.99
2023-01-30T12:11:45.309Z,59.94
2023-01-30T12:14:12.061Z,59.56
2023-01-30T12:17:10.207Z,56.73
2023-01-30T12:19:42.936Z,58.07
2023-01-30T12:22:41.967Z,58.18
2023-01-30T12:25:16.294Z,59.17
2023-01-30T12:27:50.019Z,58.13
2023-01-30T12:30:42.513Z,58.17
2023-01-30T12:33:15.480Z,58.71
2023-01-30T12:35:57.438Z,58.36
2023-01-30T12:38:30.225Z,58.35
2023-01-30T12:41:15.646Z,58.55
2023-01-30T12:43:45.388Z,57.80
2023-01-30T12:46:34.159Z,57.26
2023-01-30T12:49:11.623Z,56.76
2023-01-30T12:51:38.589Z,57.17
2023-01-30T12:54:19.641Z,58.01
2023-01-30T12:57:03.024Z,57.11
2023-01-30T12:59:39.297Z,57.87
2023-01-30T13:03:00.132Z,57.13
2023-01-30T13:05:43.721Z,57.65
2023-01-30T13:08:28.716Z,56.92
2023-01-30T13:11:09.096Z,56.74
2023-01-30T13:13:48.646Z,55.93
2023-01-30T13:16:26.968Z,56.19
2023-01-30T13:19:06.103Z,56.51
2023-01-30T13:21:56.556Z,57.76
2023-01-30T13:24:52.450Z,57.13
2023-01-30T13:27:22.057Z,56.84
2023-01-30T13:29:49.901Z,57.45
2023-01-30T13:32:30.401Z,57.03
2023-01-30T13:35:00.191Z,56.86
2023-01-30T13:37:27.645Z,58.50
2023-01-30T13:40:13.737Z,56.23
2023-01-30T13:43:02.438Z,56.08
2023-01-30T13:45:37.157Z,57.25
2023-01-30T13:48:24.969Z,56.50
2023-01-30T13:51:26.848Z,57.42
2023-01-30T13:53:58.309Z,56.03
2023-01-30T13:57:12.379Z,54.71
2023-01-30T14:00:09.535Z,55.96
2023-01-30T14:02:36.188Z,57.10
2023-01-30T14:05:05.850Z,57.18
2023-01-30T14:07:42.878Z,57.43
2023-01-30T14:10:09.428Z,56.89
2023-01-30T14:12:48.376Z,55.76
2023-01-30T14:15:15.021Z,55.81
2023-01-30T14:18:01.743Z,56.27
2023-01-30T14:20:31.342Z,56.43
2023-01-30T14:23:00.548Z,55.45
2023-01-30T14:25:30.279Z,56.82
2023-01-30T14:27:59.676Z,56.95
2023-01-30T14:30:49.756Z,57.44
2023-01-30T14:33:22.192Z,57.73
2023-01-30T14:36:00.826Z,58.26
2023-01-30T14:38:30.924Z,58.21
2023-01-30T14:41:00.106Z,57.37
2023-01-30T14:43:26.669Z,56.84
2023-01-30T14:45:57.055Z,57.27
2023-01-30T14:48:32.193Z,58.11
2023-01-30T14:51:32.758Z,57.17
2023-01-30T14:54:25.434Z,57.87
2023-01-30T14:57:01.225Z,58.72
2023-01-30T14:59:39.856Z,58.37
2023-01-30T15:02:12.384Z,57.70
2023-01-30T15:04:49.014Z,56.86
2023-01-30T15:07:23.626Z,56.56
2023-01-30T15:09:58.937Z,57.73
2023-01-30T15:12:34.203Z,58.68
2023-01-30T15:15:35.643Z,60.84
2023-01-30T15:18:17.117Z,61.40
2023-01-30T15:20:46.920Z,63.54
2023-01-30T15:23:16.586Z,64.59
2023-01-30T15:26:12.120Z,64.89
2023-01-30T15:28:50.912Z,64.57
2023-01-30T15:31:22.099Z,65.52
2023-01-30T15:33:53.888Z,65.17
2023-01-30T15:36:31.264Z,66.41
2023-01-30T15:39:06.936Z,66.54
2023-01-30T15:41:41.144Z,66.16
2023-01-30T15:44:38.398Z,67.64
2023-01-30T15:47:23.246Z,66.89
2023-01-30T15:49:59.671Z,66.94
2023-01-30T15:52:37.423Z,66.24
2023-01-30T15:55:04.534Z,65.52
2023-01-30T15:57:36.763Z,66.37
2023-01-30T16:00:06.596Z,66.87
2023-01-30T16:02:36.279Z,67.41
2023-01-30T16:05:25.251Z,68.03
2023-01-30T16:07:54.453Z,67.58
2023-01-30T16:10:24.122Z,67.01
2023-01-30T16:12:54.722Z,66.69
2023-01-30T16:15:48.880Z,66.59
2023-01-30T16:18:21.534Z,64.28
2023-01-30T16:21:01.601Z,64.11
2023-01-30T16:23:47.884Z,65.21
2023-01-30T16:26:18.114Z,66.76
2023-01-30T16:28:45.296Z,66.49
2023-01-30T16:31:12.348Z,66.66
2023-01-30T16:33:39.112Z,65.08
2023-01-30T16:36:27.187Z,64.43
2023-01-30T16:38:55.044Z,63.34
2023-01-30T16:41:39.582Z,62.55
2023-01-30T16:44:23.830Z,64.04
2023-01-30T16:46:58.373Z,64.62
2023-01-30T16:49:29.540Z,63.86
2023-01-30T16:52:21.248Z,64.11
2023-01-30T16:54:57.713Z,64.97
2023-01-30T16:57:24.313Z,64.10
2023-01-30T16:59:51.062Z,63.81
2023-01-30T17:02:39.736Z,63.83
2023-01-30T17:05:30.849Z,62.98
2023-01-30T17:08:00.628Z,63.69
2023-01-30T17:10:42.138Z,63.94
2023-01-30T17:13:36.888Z,63.28
2023-01-30T17:16:22.503Z,64.67
2023-01-30T17:18:54.083Z,64.46
2023-01-30T17:21:23.937Z,64.72
2023-01-30T17:24:00.950Z,63.59
2023-01-30T17:26:28.400Z,64.81
2023-01-30T17:28:55.114Z,64.23
2023-01-30T17:31:22.329Z,67.32
2023-01-30T17:33:49.012Z,63.54
2023-01-30T17:36:22.414Z,61.66
2023-01-30T17:38:50.711Z,62.98
2023-01-30T17:41:26.652Z,63.07
2023-01-30T17:43:53.212Z,62.99
2023-01-30T17:46:23.891Z,63.67
2023-01-30T17:48:51.778Z,61.42
2023-01-30T17:51:18.532Z,61.42
2023-01-30T17:53:45.149Z,61.73
2023-01-30T17:56:38.059Z,62.43
2023-01-30T17:59:15.311Z,63.55
2023-01-30T18:01:46.796Z,63.98
2023-01-30T18:04:13.621Z,63.19
2023-01-30T18:06:42.482Z,61.42
2023-01-30T18:09:17.960Z,62.39
2023-01-30T18:11:45.171Z,61.54
2023-01-30T18:14:11.792Z,66.20
2023-01-30T18:16:38.620Z,62.99
2023-01-30T18:19:08.716Z,60.82
2023-01-30T18:21:40.757Z,59.57
2023-01-30T18:24:07.802Z,60.55
2023-01-30T18:26:34.447Z,61.92
2023-01-30T18:29:01.149Z,60.42
2023-01-30T18:31:31.963Z,59.66
2023-01-30T18:33:58.783Z,60.66
2023-01-30T18:36:25.440Z,62.84
2023-01-30T18:38:53.609Z,61.75
2023-01-30T18:41:24.774Z,60.70
2023-01-30T18:43:59.412Z,60.64
2023-01-30T18:46:26.916Z,61.92
2023-01-30T18:48:54.879Z,60.72
2023-01-30T18:51:30.232Z,59.81
2023-01-30T18:53:57.942Z,59.98
2023-01-30T18:56:26.646Z,60.94
2023-01-30T18:58:57.539Z,64.62
2023-01-30T19:01:26.788Z,64.30
2023-01-30T19:03:58.160Z,61.73
2023-01-30T19:06:25.361Z,61.59
2023-01-30T19:08:52.597Z,60.46
2023-01-30T19:11:40.294Z,60.25
2023-01-30T19:14:08.095Z,62.03
2023-01-30T19:16:36.992Z,60.24
2023-01-30T19:19:04.057Z,60.12
2023-01-30T19:21:31.220Z,60.64
2023-01-30T19:23:58.040Z,62.17
2023-01-30T19:26:25.252Z,62.46
2023-01-30T19:28:52.321Z,61.33
2023-01-30T19:31:21.591Z,60.85
2023-01-30T19:33:58.367Z,59.99
2023-01-30T19:36:27.638Z,60.28
2023-01-30T19:38:54.895Z,61.66
2023-01-30T19:41:27.364Z,60.34
2023-01-30T19:43:55.475Z,60.79
2023-01-30T19:46:23.258Z,61.14
2023-01-30T19:48:50.433Z,60.89
2023-01-30T19:51:20.525Z,61.03
2023-01-30T19:53:54.799Z,60.31
2023-01-30T19:56:22.561Z,60.13
2023-01-30T19:58:53.078Z,59.70
2023-01-30T20:01:21.887Z,59.99
2023-01-30T20:03:49.525Z,60.21
2023-01-30T20:06:21.885Z,58.74
2023-01-30T20:08:54.041Z,58.05
2023-01-30T20:11:23.516Z,57.80
2023-01-30T20:13:51.407Z,55.27
2023-01-30T20:16:20.848Z,51.57
2023-01-30T20:18:49.080Z,51.21
2023-01-30T20:21:18.823Z,51.88
2023-01-30T20:23:46.407Z,51.46
2023-01-30T20:26:15.517Z,52.31
2023-01-30T20:28:42.497Z,53.12
2023-01-30T20:31:14.839Z,52.70
2023-01-30T20:33:42.057Z,53.29
2023-01-30T20:36:12.494Z,54.49
2023-01-30T20:38:41.955Z,51.99
2023-01-30T20:41:15.033Z,52.01
2023-01-30T20:43:46.743Z,50.75
2023-01-30T20:46:17.825Z,52.30
2023-01-30T20:48:45.377Z,50.46
2023-01-30T20:51:21.075Z,50.69
2023-01-30T20:53:50.682Z,52.11
2023-01-30T20:56:18.167Z,53.09
2023-01-30T20:58:44.774Z,53.82
2023-01-30T21:01:20.094Z,52.57
2023-01-30T21:03:49.501Z,52.86
2023-01-30T21:06:41.455Z,52.42
2023-01-30T21:09:11.260Z,51.17
2023-01-30T21:11:39.474Z,53.57
2023-01-30T21:14:06.391Z,52.97
2023-01-30T21:16:34.859Z,53.86
2023-01-30T21:19:05.363Z,53.42
2023-01-30T21:21:36.909Z,52.71
2023-01-30T21:24:07.531Z,52.92
2023-01-30T21:26:36.893Z,52.77
2023-01-30T21:29:06.287Z,54.04
2023-01-30T21:31:34.803Z,55.91
2023-01-30T21:34:03.586Z,54.75
2023-01-30T21:36:30.870Z,53.78
2023-01-30T21:39:16.004Z,52.99
2023-01-30T21:42:04.954Z,52.24
2023-01-30T21:44:37.673Z,51.63
2023-01-30T21:47:06.288Z,49.99
2023-01-30T21:49:33.753Z,50.45
2023-01-30T21:52:00.502Z,48.71
2023-01-30T21:54:27.323Z,47.34
2023-01-30T21:56:54.094Z,47.61
2023-01-30T21:59:20.672Z,48.69
2023-01-30T22:01:47.380Z,48.93
2023-01-30T22:04:15.250Z,49.50
2023-01-30T22:06:42.907Z,48.85
2023-01-30T22:09:13.708Z,49.17
2023-01-30T22:11:40.457Z,49.50
2023-01-30T22:14:07.156Z,48.21
2023-01-30T22:16:33.987Z,48.45
2023-01-30T22:19:03.681Z,49.96
2023-01-30T22:21:34.488Z,49.95
2023-01-30T22:24:02.312Z,48.81
2023-01-30T22:26:29.238Z,48.56
2023-01-30T22:28:58.326Z,47.85
2023-01-30T22:31:27.001Z,50.85
2023-01-30T22:33:55.891Z,50.28
2023-01-30T22:36:28.462Z,49.91
2023-01-30T22:38:55.907Z,50.52
2023-01-30T22:41:24.359Z,51.23
2023-01-30T22:43:56.010Z,49.49
2023-01-30T22:46:32.987Z,47.34
2023-01-30T22:49:01.705Z,45.92
2023-01-30T22:51:30.974Z,46.74
2023-01-30T22:54:02.378Z,46.87
2023-01-30T22:56:39.599Z,47.35
2023-01-30T22:59:07.000Z,46.27
2023-01-30T23:01:37.099Z,46.71
2023-01-30T23:04:07.151Z,47.60
2023-01-30T23:06:34.357Z,48.11
2023-01-30T23:09:01.428Z,49.57
2023-01-30T23:11:31.081Z,49.81
2023-01-30T23:14:05.504Z,48.87
2023-01-30T23:16:34.348Z,48.87
2023-01-30T23:19:03.611Z,48.16
2023-01-30T23:21:37.923Z,48.33
2023-01-30T23:24:06.688Z,49.60
2023-01-30T23:26:35.664Z,50.10
2023-01-30T23:29:04.275Z,49.76
2023-01-30T23:31:30.917Z,50.82
2023-01-30T23:34:00.869Z,50.38
2023-01-30T23:36:28.680Z,50.61
2023-01-30T23:38:57.798Z,50.33
2023-01-30T23:41:28.958Z,48.65
2023-01-30T23:43:57.050Z,49.08
2023-01-30T23:46:33.272Z,47.80
2023-01-30T23:49:05.093Z,47.84
2023-01-30T23:51:33.583Z,49.11
2023-01-30T23:54:00.599Z,50.81
2023-01-30T23:56:30.343Z,51.78
2023-01-30T23:58:57.301Z,51.07
